sensor_id;sensor_type;location;lat;lon;timestamp;P1;durP1;ratioP1;P2;durP2;ratioP2
11084;SDS011;5596;46.826;8.650;2022-08-20T00:00:58;15.73;;;14.00;;
11084;SDS011;5596;46.826;8.650;2022-08-20T00:03:27;19.33;;;16.03;;
11084;SDS011;5596;46.826;8.650;2022-08-20T00:05:58;21.50;;;15.77;;
11084;SDS011;5596;46.826;8.650;2022-08-20T00:08:27;19.23;;;15.63;;
11084;SDS011;5596;46.826;8.650;2022-08-20T00:10:55;21.57;;;15.67;;
11084;SDS011;5596;46.826;8.650;2022-08-20T00:13:24;15.97;;;13.63;;
11084;SDS011;5596;46.826;8.650;2022-08-20T00:15:53;18.30;;;14.60;;
11084;SDS011;5596;46.826;8.650;2022-08-20T00:18:20;22.50;;;15.80;;
11084;SDS011;5596;46.826;8.650;2022-08-20T00:20:50;22.83;;;17.30;;
11084;SDS011;5596;46.826;8.650;2022-08-20T00:23:20;22.33;;;16.53;;
11084;SDS011;5596;46.826;8.650;2022-08-20T00:25:48;23.97;;;17.73;;
11084;SDS011;5596;46.826;8.650;2022-08-20T00:28:16;24.07;;;17.37;;
11084;SDS011;5596;46.826;8.650;2022-08-20T00:30:44;19.70;;;15.73;;
11084;SDS011;5596;46.826;8.650;2022-08-20T00:33:12;21.20;;;15.87;;
11084;SDS011;5596;46.826;8.650;2022-08-20T00:35:42;19.93;;;15.83;;
11084;SDS011;5596;46.826;8.650;2022-08-20T00:38:12;20.03;;;16.20;;
11084;SDS011;5596;46.826;8.650;2022-08-20T00:40:42;17.47;;;14.93;;
11084;SDS011;5596;46.826;8.650;2022-08-20T00:43:27;20.37;;;16.40;;
11084;SDS011;5596;46.826;8.650;2022-08-20T00:45:57;19.43;;;15.70;;
11084;SDS011;5596;46.826;8.650;2022-08-20T00:48:26;17.93;;;14.67;;
11084;SDS011;5596;46.826;8.650;2022-08-20T00:50:58;19.27;;;15.53;;
11084;SDS011;5596;46.826;8.650;2022-08-20T00:53:29;17.80;;;13.83;;
11084;SDS011;5596;46.826;8.650;2022-08-20T00:55:59;19.00;;;14.40;;
11084;SDS011;5596;46.826;8.650;2022-08-20T00:58:27;19.33;;;15.50;;
11084;SDS011;5596;46.826;8.650;2022-08-20T01:00:54;18.43;;;15.20;;
11084;SDS011;5596;46.826;8.650;2022-08-20T01:03:22;17.17;;;13.27;;
11084;SDS011;5596;46.826;8.650;2022-08-20T01:05:50;15.90;;;13.17;;
11084;SDS011;5596;46.826;8.650;2022-08-20T01:08:18;17.13;;;14.17;;
11084;SDS011;5596;46.826;8.650;2022-08-20T01:10:49;20.97;;;16.43;;
11084;SDS011;5596;46.826;8.650;2022-08-20T01:13:20;22.00;;;15.40;;
11084;SDS011;5596;46.826;8.650;2022-08-20T01:15:50;19.00;;;14.10;;
11084;SDS011;5596;46.826;8.650;2022-08-20T01:18:22;16.03;;;12.20;;
11084;SDS011;5596;46.826;8.650;2022-08-20T01:20:54;20.00;;;15.23;;
11084;SDS011;5596;46.826;8.650;2022-08-20T01:23:26;21.50;;;15.77;;
11084;SDS011;5596;46.826;8.650;2022-08-20T01:26:04;18.97;;;14.83;;
11084;SDS011;5596;46.826;8.650;2022-08-20T01:28:36;14.30;;;12.20;;
11084;SDS011;5596;46.826;8.650;2022-08-20T01:31:05;17.90;;;13.23;;
11084;SDS011;5596;46.826;8.650;2022-08-20T01:33:34;16.07;;;13.63;;
11084;SDS011;5596;46.826;8.650;2022-08-20T01:36:02;15.27;;;12.77;;
11084;SDS011;5596;46.826;8.650;2022-08-20T01:38:30;17.37;;;13.33;;
11084;SDS011;5596;46.826;8.650;2022-08-20T01:44:06;17.77;;;13.10;;
11084;SDS011;5596;46.826;8.650;2022-08-20T01:46:35;18.33;;;13.20;;
11084;SDS011;5596;46.826;8.650;2022-08-20T01:49:09;14.47;;;12.27;;
11084;SDS011;5596;46.826;8.650;2022-08-20T01:51:39;15.13;;;11.70;;
11084;SDS011;5596;46.826;8.650;2022-08-20T01:54:07;11.17;;;9.33;;
11084;SDS011;5596;46.826;8.650;2022-08-20T01:56:35;13.33;;;10.43;;
11084;SDS011;5596;46.826;8.650;2022-08-20T01:59:16;15.60;;;11.53;;
11084;SDS011;5596;46.826;8.650;2022-08-20T02:01:43;19.27;;;14.03;;
11084;SDS011;5596;46.826;8.650;2022-08-20T02:04:10;16.53;;;12.77;;
11084;SDS011;5596;46.826;8.650;2022-08-20T02:06:39;16.57;;;13.20;;
11084;SDS011;5596;46.826;8.650;2022-08-20T02:09:08;11.77;;;9.43;;
11084;SDS011;5596;46.826;8.650;2022-08-20T02:11:36;10.47;;;9.17;;
11084;SDS011;5596;46.826;8.650;2022-08-20T02:14:05;12.97;;;9.83;;
11084;SDS011;5596;46.826;8.650;2022-08-20T02:16:35;11.50;;;9.50;;
11084;SDS011;5596;46.826;8.650;2022-08-20T02:19:06;12.30;;;8.97;;
11084;SDS011;5596;46.826;8.650;2022-08-20T02:21:38;10.10;;;7.93;;
11084;SDS011;5596;46.826;8.650;2022-08-20T02:24:08;10.33;;;8.53;;
11084;SDS011;5596;46.826;8.650;2022-08-20T02:26:35;10.53;;;9.30;;
11084;SDS011;5596;46.826;8.650;2022-08-20T02:29:04;10.77;;;9.50;;
11084;SDS011;5596;46.826;8.650;2022-08-20T02:31:34;11.03;;;9.60;;
11084;SDS011;5596;46.826;8.650;2022-08-20T02:34:03;10.30;;;8.00;;
11084;SDS011;5596;46.826;8.650;2022-08-20T02:36:33;9.57;;;7.43;;
11084;SDS011;5596;46.826;8.650;2022-08-20T02:39:03;10.67;;;8.37;;
11084;SDS011;5596;46.826;8.650;2022-08-20T02:41:31;9.10;;;7.63;;
11084;SDS011;5596;46.826;8.650;2022-08-20T02:43:59;9.40;;;6.97;;
11084;SDS011;5596;46.826;8.650;2022-08-20T02:46:26;9.27;;;7.20;;
11084;SDS011;5596;46.826;8.650;2022-08-20T02:48:56;9.23;;;7.90;;
11084;SDS011;5596;46.826;8.650;2022-08-20T02:51:23;9.50;;;8.10;;
11084;SDS011;5596;46.826;8.650;2022-08-20T02:53:50;11.07;;;7.53;;
11084;SDS011;5596;46.826;8.650;2022-08-20T02:56:18;8.27;;;6.83;;
11084;SDS011;5596;46.826;8.650;2022-08-20T02:58:45;9.30;;;7.63;;
11084;SDS011;5596;46.826;8.650;2022-08-20T03:01:13;8.67;;;7.73;;
11084;SDS011;5596;46.826;8.650;2022-08-20T03:03:41;9.37;;;8.33;;
11084;SDS011;5596;46.826;8.650;2022-08-20T03:06:11;10.73;;;7.97;;
11084;SDS011;5596;46.826;8.650;2022-08-20T03:08:39;9.47;;;7.70;;
11084;SDS011;5596;46.826;8.650;2022-08-20T03:11:06;8.97;;;7.60;;
11084;SDS011;5596;46.826;8.650;2022-08-20T03:13:33;9.73;;;7.70;;
11084;SDS011;5596;46.826;8.650;2022-08-20T03:16:02;9.80;;;7.90;;
11084;SDS011;5596;46.826;8.650;2022-08-20T03:18:30;12.27;;;8.00;;
11084;SDS011;5596;46.826;8.650;2022-08-20T03:21:00;10.07;;;8.40;;
11084;SDS011;5596;46.826;8.650;2022-08-20T03:23:29;9.63;;;7.80;;
11084;SDS011;5596;46.826;8.650;2022-08-20T03:25:56;8.93;;;7.93;;
11084;SDS011;5596;46.826;8.650;2022-08-20T03:28:24;9.93;;;8.53;;
11084;SDS011;5596;46.826;8.650;2022-08-20T03:30:51;8.23;;;7.10;;
11084;SDS011;5596;46.826;8.650;2022-08-20T03:33:19;9.90;;;7.17;;
11084;SDS011;5596;46.826;8.650;2022-08-20T03:35:46;8.63;;;6.47;;
11084;SDS011;5596;46.826;8.650;2022-08-20T03:38:15;9.63;;;6.00;;
11084;SDS011;5596;46.826;8.650;2022-08-20T03:40:45;7.00;;;6.30;;
11084;SDS011;5596;46.826;8.650;2022-08-20T03:43:13;9.27;;;6.00;;
11084;SDS011;5596;46.826;8.650;2022-08-20T03:45:41;7.47;;;6.30;;
11084;SDS011;5596;46.826;8.650;2022-08-20T03:48:11;7.83;;;6.40;;
11084;SDS011;5596;46.826;8.650;2022-08-20T03:50:40;8.83;;;5.87;;
11084;SDS011;5596;46.826;8.650;2022-08-20T03:53:07;9.47;;;5.50;;
11084;SDS011;5596;46.826;8.650;2022-08-20T03:55:36;7.83;;;5.83;;
11084;SDS011;5596;46.826;8.650;2022-08-20T03:58:07;7.57;;;6.00;;
11084;SDS011;5596;46.826;8.650;2022-08-20T04:00:36;7.10;;;5.80;;
11084;SDS011;5596;46.826;8.650;2022-08-20T04:03:05;7.57;;;5.77;;
11084;SDS011;5596;46.826;8.650;2022-08-20T04:05:34;9.47;;;8.10;;
11084;SDS011;5596;46.826;8.650;2022-08-20T04:08:04;9.03;;;7.20;;
11084;SDS011;5596;46.826;8.650;2022-08-20T04:10:32;9.20;;;7.63;;
11084;SDS011;5596;46.826;8.650;2022-08-20T04:12:59;12.00;;;7.40;;
11084;SDS011;5596;46.826;8.650;2022-08-20T04:15:28;10.70;;;7.07;;
11084;SDS011;5596;46.826;8.650;2022-08-20T04:17:56;11.60;;;7.53;;
11084;SDS011;5596;46.826;8.650;2022-08-20T04:20:23;10.60;;;7.00;;
11084;SDS011;5596;46.826;8.650;2022-08-20T04:22:52;9.40;;;7.10;;
11084;SDS011;5596;46.826;8.650;2022-08-20T04:25:20;8.00;;;7.17;;
11084;SDS011;5596;46.826;8.650;2022-08-20T04:27:47;9.67;;;7.87;;
11084;SDS011;5596;46.826;8.650;2022-08-20T04:30:16;8.90;;;6.97;;
11084;SDS011;5596;46.826;8.650;2022-08-20T04:32:46;8.63;;;7.30;;
11084;SDS011;5596;46.826;8.650;2022-08-20T04:35:14;8.27;;;6.77;;
11084;SDS011;5596;46.826;8.650;2022-08-20T04:37:42;8.13;;;6.53;;
11084;SDS011;5596;46.826;8.650;2022-08-20T04:40:11;7.87;;;5.80;;
11084;SDS011;5596;46.826;8.650;2022-08-20T04:42:59;8.50;;;6.57;;
11084;SDS011;5596;46.826;8.650;2022-08-20T04:45:29;7.27;;;5.90;;
11084;SDS011;5596;46.826;8.650;2022-08-20T04:47:59;6.87;;;6.17;;
11084;SDS011;5596;46.826;8.650;2022-08-20T04:50:29;6.57;;;5.73;;
11084;SDS011;5596;46.826;8.650;2022-08-20T04:52:59;7.03;;;6.17;;
11084;SDS011;5596;46.826;8.650;2022-08-20T04:55:27;8.30;;;6.13;;
11084;SDS011;5596;46.826;8.650;2022-08-20T04:57:54;7.70;;;6.20;;
11084;SDS011;5596;46.826;8.650;2022-08-20T05:00:22;6.23;;;5.60;;
11084;SDS011;5596;46.826;8.650;2022-08-20T05:02:49;6.87;;;5.70;;
11084;SDS011;5596;46.826;8.650;2022-08-20T05:05:17;6.23;;;5.57;;
11084;SDS011;5596;46.826;8.650;2022-08-20T05:07:46;7.83;;;5.90;;
11084;SDS011;5596;46.826;8.650;2022-08-20T05:10:15;6.37;;;5.07;;
11084;SDS011;5596;46.826;8.650;2022-08-20T05:12:44;6.93;;;5.47;;
11084;SDS011;5596;46.826;8.650;2022-08-20T05:15:11;6.40;;;5.50;;
11084;SDS011;5596;46.826;8.650;2022-08-20T05:17:39;5.67;;;5.17;;
11084;SDS011;5596;46.826;8.650;2022-08-20T05:20:08;5.77;;;5.20;;
11084;SDS011;5596;46.826;8.650;2022-08-20T05:22:39;5.80;;;4.87;;
11084;SDS011;5596;46.826;8.650;2022-08-20T05:25:06;5.90;;;5.30;;
11084;SDS011;5596;46.826;8.650;2022-08-20T05:27:33;7.50;;;6.17;;
11084;SDS011;5596;46.826;8.650;2022-08-20T05:30:01;7.60;;;5.87;;
11084;SDS011;5596;46.826;8.650;2022-08-20T05:32:31;8.33;;;5.53;;
11084;SDS011;5596;46.826;8.650;2022-08-20T05:34:59;5.73;;;4.80;;
11084;SDS011;5596;46.826;8.650;2022-08-20T05:37:26;7.23;;;5.70;;
11084;SDS011;5596;46.826;8.650;2022-08-20T05:39:55;8.27;;;5.60;;
11084;SDS011;5596;46.826;8.650;2022-08-20T05:42:22;6.20;;;5.53;;
11084;SDS011;5596;46.826;8.650;2022-08-20T05:44:51;7.03;;;6.33;;
11084;SDS011;5596;46.826;8.650;2022-08-20T05:47:18;7.37;;;5.87;;
11084;SDS011;5596;46.826;8.650;2022-08-20T05:49:52;7.90;;;5.90;;
11084;SDS011;5596;46.826;8.650;2022-08-20T05:52:19;6.83;;;6.13;;
11084;SDS011;5596;46.826;8.650;2022-08-20T05:54:46;7.87;;;5.73;;
11084;SDS011;5596;46.826;8.650;2022-08-20T05:57:16;7.07;;;5.60;;
11084;SDS011;5596;46.826;8.650;2022-08-20T05:59:44;7.17;;;5.73;;
11084;SDS011;5596;46.826;8.650;2022-08-20T06:02:11;7.40;;;6.60;;
11084;SDS011;5596;46.826;8.650;2022-08-20T06:04:52;9.47;;;5.90;;
11084;SDS011;5596;46.826;8.650;2022-08-20T06:07:19;6.83;;;6.00;;
11084;SDS011;5596;46.826;8.650;2022-08-20T06:09:47;6.10;;;5.50;;
11084;SDS011;5596;46.826;8.650;2022-08-20T06:12:15;6.43;;;5.47;;
11084;SDS011;5596;46.826;8.650;2022-08-20T06:14:43;9.20;;;5.27;;
11084;SDS011;5596;46.826;8.650;2022-08-20T06:17:12;6.60;;;5.93;;
11084;SDS011;5596;46.826;8.650;2022-08-20T06:19:42;6.77;;;5.10;;
11084;SDS011;5596;46.826;8.650;2022-08-20T06:22:10;8.47;;;5.83;;
11084;SDS011;5596;46.826;8.650;2022-08-20T06:24:38;6.77;;;5.37;;
11084;SDS011;5596;46.826;8.650;2022-08-20T06:27:05;7.87;;;6.10;;
11084;SDS011;5596;46.826;8.650;2022-08-20T06:29:34;8.37;;;6.20;;
11084;SDS011;5596;46.826;8.650;2022-08-20T06:32:01;7.30;;;6.47;;
11084;SDS011;5596;46.826;8.650;2022-08-20T06:34:28;7.97;;;5.77;;
11084;SDS011;5596;46.826;8.650;2022-08-20T06:36:56;8.57;;;6.27;;
11084;SDS011;5596;46.826;8.650;2022-08-20T06:39:24;8.13;;;6.13;;
11084;SDS011;5596;46.826;8.650;2022-08-20T06:41:52;9.03;;;6.10;;
11084;SDS011;5596;46.826;8.650;2022-08-20T06:44:22;7.63;;;6.37;;
11084;SDS011;5596;46.826;8.650;2022-08-20T06:46:51;7.97;;;5.97;;
11084;SDS011;5596;46.826;8.650;2022-08-20T06:49:19;6.67;;;5.90;;
11084;SDS011;5596;46.826;8.650;2022-08-20T06:51:46;10.07;;;6.30;;
11084;SDS011;5596;46.826;8.650;2022-08-20T06:54:13;7.77;;;6.63;;
11084;SDS011;5596;46.826;8.650;2022-08-20T06:56:41;10.23;;;5.60;;
11084;SDS011;5596;46.826;8.650;2022-08-20T06:59:08;7.93;;;5.67;;
11084;SDS011;5596;46.826;8.650;2022-08-20T07:01:35;8.13;;;5.93;;
11084;SDS011;5596;46.826;8.650;2022-08-20T07:04:04;8.73;;;5.67;;
11084;SDS011;5596;46.826;8.650;2022-08-20T07:06:33;6.83;;;4.80;;
11084;SDS011;5596;46.826;8.650;2022-08-20T07:09:00;5.40;;;4.90;;
11084;SDS011;5596;46.826;8.650;2022-08-20T07:11:27;7.57;;;5.50;;
11084;SDS011;5596;46.826;8.650;2022-08-20T07:13:54;7.07;;;4.97;;
11084;SDS011;5596;46.826;8.650;2022-08-20T07:16:22;6.43;;;4.43;;
11084;SDS011;5596;46.826;8.650;2022-08-20T07:18:50;7.83;;;5.33;;
11084;SDS011;5596;46.826;8.650;2022-08-20T07:21:18;5.57;;;4.80;;
11084;SDS011;5596;46.826;8.650;2022-08-20T07:23:45;9.90;;;4.87;;
11084;SDS011;5596;46.826;8.650;2022-08-20T07:26:13;5.93;;;4.43;;
11084;SDS011;5596;46.826;8.650;2022-08-20T07:28:40;5.50;;;4.57;;
11084;SDS011;5596;46.826;8.650;2022-08-20T07:31:07;6.73;;;5.07;;
11084;SDS011;5596;46.826;8.650;2022-08-20T07:33:52;5.33;;;4.67;;
11084;SDS011;5596;46.826;8.650;2022-08-20T07:36:20;4.77;;;4.27;;
11084;SDS011;5596;46.826;8.650;2022-08-20T07:38:47;5.83;;;4.70;;
11084;SDS011;5596;46.826;8.650;2022-08-20T07:41:15;7.30;;;4.50;;
11084;SDS011;5596;46.826;8.650;2022-08-20T07:43:42;4.90;;;4.13;;
11084;SDS011;5596;46.826;8.650;2022-08-20T07:46:11;4.37;;;3.97;;
11084;SDS011;5596;46.826;8.650;2022-08-20T07:48:40;6.30;;;4.77;;
11084;SDS011;5596;46.826;8.650;2022-08-20T07:51:10;5.97;;;4.67;;
11084;SDS011;5596;46.826;8.650;2022-08-20T07:53:40;5.10;;;4.23;;
11084;SDS011;5596;46.826;8.650;2022-08-20T07:56:08;5.37;;;4.37;;
11084;SDS011;5596;46.826;8.650;2022-08-20T07:58:37;5.67;;;4.80;;
11084;SDS011;5596;46.826;8.650;2022-08-20T08:01:07;5.03;;;4.50;;
11084;SDS011;5596;46.826;8.650;2022-08-20T08:03:34;5.60;;;4.60;;
11084;SDS011;5596;46.826;8.650;2022-08-20T08:06:02;6.70;;;4.50;;
11084;SDS011;5596;46.826;8.650;2022-08-20T08:08:30;4.68;;;4.18;;
11084;SDS011;5596;46.826;8.650;2022-08-20T08:11:01;7.18;;;4.63;;
11084;SDS011;5596;46.826;8.650;2022-08-20T08:13:30;5.80;;;4.05;;
11084;SDS011;5596;46.826;8.650;2022-08-20T08:16:00;5.43;;;4.67;;
11084;SDS011;5596;46.826;8.650;2022-08-20T08:18:32;6.40;;;4.63;;
11084;SDS011;5596;46.826;8.650;2022-08-20T08:21:03;5.10;;;4.60;;
11084;SDS011;5596;46.826;8.650;2022-08-20T08:23:31;6.07;;;4.80;;
11084;SDS011;5596;46.826;8.650;2022-08-20T08:26:01;6.80;;;4.40;;
11084;SDS011;5596;46.826;8.650;2022-08-20T08:28:28;6.83;;;4.70;;
11084;SDS011;5596;46.826;8.650;2022-08-20T08:30:55;4.63;;;4.13;;
11084;SDS011;5596;46.826;8.650;2022-08-20T08:33:23;6.40;;;4.30;;
11084;SDS011;5596;46.826;8.650;2022-08-20T08:35:57;4.93;;;4.43;;
11084;SDS011;5596;46.826;8.650;2022-08-20T08:38:27;5.37;;;4.03;;
11084;SDS011;5596;46.826;8.650;2022-08-20T08:40:56;4.25;;;3.88;;
11084;SDS011;5596;46.826;8.650;2022-08-20T08:43:28;4.75;;;4.05;;
11084;SDS011;5596;46.826;8.650;2022-08-20T08:45:58;4.60;;;4.18;;
11084;SDS011;5596;46.826;8.650;2022-08-20T08:48:32;4.60;;;4.20;;
11084;SDS011;5596;46.826;8.650;2022-08-20T08:51:03;5.18;;;4.07;;
11084;SDS011;5596;46.826;8.650;2022-08-20T08:53:37;4.20;;;3.80;;
11084;SDS011;5596;46.826;8.650;2022-08-20T08:56:07;4.50;;;4.00;;
11084;SDS011;5596;46.826;8.650;2022-08-20T08:58:36;5.32;;;4.07;;
11084;SDS011;5596;46.826;8.650;2022-08-20T09:01:07;4.43;;;4.03;;
11084;SDS011;5596;46.826;8.650;2022-08-20T09:03:38;4.50;;;4.10;;
11084;SDS011;5596;46.826;8.650;2022-08-20T09:06:10;4.40;;;4.00;;
11084;SDS011;5596;46.826;8.650;2022-08-20T09:08:42;5.30;;;3.70;;
11084;SDS011;5596;46.826;8.650;2022-08-20T09:11:12;4.30;;;3.95;;
11084;SDS011;5596;46.826;8.650;2022-08-20T09:13:42;4.80;;;4.30;;
11084;SDS011;5596;46.826;8.650;2022-08-20T09:16:09;5.00;;;4.50;;
11084;SDS011;5596;46.826;8.650;2022-08-20T09:18:37;4.53;;;4.00;;
11084;SDS011;5596;46.826;8.650;2022-08-20T09:21:05;6.15;;;4.53;;
11084;SDS011;5596;46.826;8.650;2022-08-20T09:23:33;5.00;;;4.50;;
11084;SDS011;5596;46.826;8.650;2022-08-20T09:26:00;6.15;;;4.75;;
11084;SDS011;5596;46.826;8.650;2022-08-20T09:28:27;5.60;;;4.90;;
11084;SDS011;5596;46.826;8.650;2022-08-20T09:30:56;6.10;;;4.53;;
11084;SDS011;5596;46.826;8.650;2022-08-20T09:33:23;5.35;;;4.85;;
11084;SDS011;5596;46.826;8.650;2022-08-20T09:35:50;6.15;;;4.82;;
11084;SDS011;5596;46.826;8.650;2022-08-20T09:38:17;5.55;;;4.90;;
11084;SDS011;5596;46.826;8.650;2022-08-20T09:40:45;5.72;;;5.07;;
11084;SDS011;5596;46.826;8.650;2022-08-20T09:43:12;7.35;;;5.07;;
11084;SDS011;5596;46.826;8.650;2022-08-20T09:45:39;6.35;;;4.85;;
11084;SDS011;5596;46.826;8.650;2022-08-20T09:48:08;5.30;;;4.80;;
11084;SDS011;5596;46.826;8.650;2022-08-20T09:50:35;5.68;;;4.72;;
11084;SDS011;5596;46.826;8.650;2022-08-20T09:53:03;5.22;;;4.72;;
11084;SDS011;5596;46.826;8.650;2022-08-20T09:55:32;6.63;;;5.18;;
11084;SDS011;5596;46.826;8.650;2022-08-20T09:58:01;6.93;;;4.90;;
11084;SDS011;5596;46.826;8.650;2022-08-20T10:00:31;7.13;;;4.72;;
11084;SDS011;5596;46.826;8.650;2022-08-20T10:02:58;4.93;;;4.53;;
11084;SDS011;5596;46.826;8.650;2022-08-20T10:05:28;5.47;;;4.97;;
11084;SDS011;5596;46.826;8.650;2022-08-20T10:07:55;7.55;;;4.78;;
11084;SDS011;5596;46.826;8.650;2022-08-20T10:10:23;4.68;;;4.28;;
11084;SDS011;5596;46.826;8.650;2022-08-20T10:12:50;6.07;;;5.47;;
11084;SDS011;5596;46.826;8.650;2022-08-20T10:15:17;5.93;;;5.25;;
11084;SDS011;5596;46.826;8.650;2022-08-20T10:17:44;6.95;;;5.63;;
11084;SDS011;5596;46.826;8.650;2022-08-20T10:20:12;5.78;;;5.03;;
11084;SDS011;5596;46.826;8.650;2022-08-20T10:22:41;5.75;;;5.15;;
11084;SDS011;5596;46.826;8.650;2022-08-20T10:25:08;6.28;;;5.13;;
11084;SDS011;5596;46.826;8.650;2022-08-20T10:27:36;5.70;;;5.13;;
11084;SDS011;5596;46.826;8.650;2022-08-20T10:30:05;7.03;;;5.30;;
11084;SDS011;5596;46.826;8.650;2022-08-20T10:32:32;5.80;;;5.18;;
11084;SDS011;5596;46.826;8.650;2022-08-20T10:34:59;6.82;;;5.22;;
11084;SDS011;5596;46.826;8.650;2022-08-20T10:37:27;5.90;;;5.03;;
11084;SDS011;5596;46.826;8.650;2022-08-20T10:39:56;5.00;;;4.60;;
11084;SDS011;5596;46.826;8.650;2022-08-20T10:42:23;6.50;;;5.22;;
11084;SDS011;5596;46.826;8.650;2022-08-20T10:44:50;6.57;;;5.20;;
11084;SDS011;5596;46.826;8.650;2022-08-20T10:47:18;6.35;;;5.10;;
11084;SDS011;5596;46.826;8.650;2022-08-20T10:49:47;5.28;;;4.78;;
11084;SDS011;5596;46.826;8.650;2022-08-20T10:52:15;6.80;;;5.75;;
11084;SDS011;5596;46.826;8.650;2022-08-20T10:54:43;7.55;;;5.32;;
11084;SDS011;5596;46.826;8.650;2022-08-20T10:57:13;5.13;;;4.63;;
11084;SDS011;5596;46.826;8.650;2022-08-20T10:59:43;5.82;;;5.22;;
11084;SDS011;5596;46.826;8.650;2022-08-20T11:02:12;6.28;;;4.82;;
11084;SDS011;5596;46.826;8.650;2022-08-20T11:04:41;8.73;;;6.03;;
11084;SDS011;5596;46.826;8.650;2022-08-20T11:07:09;5.70;;;5.10;;
11084;SDS011;5596;46.826;8.650;2022-08-20T11:09:41;5.40;;;4.90;;
11084;SDS011;5596;46.826;8.650;2022-08-20T11:12:09;5.43;;;4.78;;
11084;SDS011;5596;46.826;8.650;2022-08-20T11:14:37;7.07;;;5.20;;
11084;SDS011;5596;46.826;8.650;2022-08-20T11:17:05;5.20;;;4.70;;
11084;SDS011;5596;46.826;8.650;2022-08-20T11:19:36;7.10;;;5.57;;
11084;SDS011;5596;46.826;8.650;2022-08-20T11:22:04;5.53;;;4.93;;
11084;SDS011;5596;46.826;8.650;2022-08-20T11:24:31;7.53;;;5.38;;
11084;SDS011;5596;46.826;8.650;2022-08-20T11:26:59;5.28;;;4.78;;
11084;SDS011;5596;46.826;8.650;2022-08-20T11:29:27;5.68;;;4.43;;
11084;SDS011;5596;46.826;8.650;2022-08-20T11:31:55;4.60;;;4.20;;
11084;SDS011;5596;46.826;8.650;2022-08-20T11:34:22;5.13;;;4.65;;
11084;SDS011;5596;46.826;8.650;2022-08-20T11:36:49;4.60;;;4.20;;
11084;SDS011;5596;46.826;8.650;2022-08-20T11:39:17;5.07;;;4.60;;
11084;SDS011;5596;46.826;8.650;2022-08-20T11:41:44;4.72;;;4.25;;
11084;SDS011;5596;46.826;8.650;2022-08-20T11:44:12;5.40;;;4.88;;
11084;SDS011;5596;46.826;8.650;2022-08-20T11:46:39;6.07;;;4.70;;
11084;SDS011;5596;46.826;8.650;2022-08-20T11:49:07;5.50;;;4.88;;
11084;SDS011;5596;46.826;8.650;2022-08-20T11:51:34;6.55;;;5.55;;
11084;SDS011;5596;46.826;8.650;2022-08-20T11:54:02;5.53;;;4.90;;
11084;SDS011;5596;46.826;8.650;2022-08-20T11:56:29;5.85;;;5.30;;
11084;SDS011;5596;46.826;8.650;2022-08-20T11:58:56;5.45;;;4.95;;
11084;SDS011;5596;46.826;8.650;2022-08-20T12:01:24;5.15;;;4.63;;
11084;SDS011;5596;46.826;8.650;2022-08-20T12:03:51;5.22;;;4.80;;
11084;SDS011;5596;46.826;8.650;2022-08-20T12:06:19;5.35;;;4.85;;
11084;SDS011;5596;46.826;8.650;2022-08-20T12:08:46;5.30;;;4.80;;
11084;SDS011;5596;46.826;8.650;2022-08-20T12:11:13;5.55;;;5.05;;
11084;SDS011;5596;46.826;8.650;2022-08-20T12:13:41;6.25;;;5.65;;
11084;SDS011;5596;46.826;8.650;2022-08-20T12:16:08;6.10;;;5.45;;
11084;SDS011;5596;46.826;8.650;2022-08-20T12:18:35;6.00;;;4.90;;
11084;SDS011;5596;46.826;8.650;2022-08-20T12:21:02;7.82;;;6.18;;
11084;SDS011;5596;46.826;8.650;2022-08-20T12:23:31;5.28;;;4.78;;
11084;SDS011;5596;46.826;8.650;2022-08-20T12:25:58;5.38;;;4.88;;
11084;SDS011;5596;46.826;8.650;2022-08-20T12:28:27;5.22;;;4.63;;
11084;SDS011;5596;46.826;8.650;2022-08-20T12:30:54;4.93;;;4.43;;
11084;SDS011;5596;46.826;8.650;2022-08-20T12:33:22;4.85;;;4.30;;
11084;SDS011;5596;46.826;8.650;2022-08-20T12:35:49;3.95;;;3.55;;
11084;SDS011;5596;46.826;8.650;2022-08-20T12:38:17;4.35;;;3.95;;
11084;SDS011;5596;46.826;8.650;2022-08-20T12:40:45;4.50;;;3.80;;
11084;SDS011;5596;46.826;8.650;2022-08-20T12:43:12;4.53;;;4.10;;
11084;SDS011;5596;46.826;8.650;2022-08-20T12:45:39;4.13;;;3.72;;
11084;SDS011;5596;46.826;8.650;2022-08-20T12:48:07;3.80;;;3.35;;
11084;SDS011;5596;46.826;8.650;2022-08-20T12:50:39;3.70;;;3.40;;
11084;SDS011;5596;46.826;8.650;2022-08-20T12:53:07;3.85;;;3.45;;
11084;SDS011;5596;46.826;8.650;2022-08-20T12:55:34;4.50;;;3.88;;
11084;SDS011;5596;46.826;8.650;2022-08-20T12:58:03;3.90;;;3.60;;
11084;SDS011;5596;46.826;8.650;2022-08-20T13:00:33;4.55;;;4.13;;
11084;SDS011;5596;46.826;8.650;2022-08-20T13:03:02;4.15;;;3.75;;
11084;SDS011;5596;46.826;8.650;2022-08-20T13:05:31;3.78;;;3.33;;
11084;SDS011;5596;46.826;8.650;2022-08-20T13:08:00;6.18;;;3.95;;
11084;SDS011;5596;46.826;8.650;2022-08-20T13:10:29;4.35;;;3.33;;
11084;SDS011;5596;46.826;8.650;2022-08-20T13:12:57;3.97;;;3.60;;
11084;SDS011;5596;46.826;8.650;2022-08-20T13:15:27;4.93;;;3.75;;
11084;SDS011;5596;46.826;8.650;2022-08-20T13:17:56;4.00;;;3.60;;
11084;SDS011;5596;46.826;8.650;2022-08-20T13:20:26;5.50;;;3.83;;
11084;SDS011;5596;46.826;8.650;2022-08-20T13:22:54;4.50;;;3.90;;
11084;SDS011;5596;46.826;8.650;2022-08-20T13:25:22;5.47;;;3.70;;
11084;SDS011;5596;46.826;8.650;2022-08-20T13:27:53;3.85;;;3.55;;
11084;SDS011;5596;46.826;8.650;2022-08-20T13:30:22;3.50;;;2.95;;
11084;SDS011;5596;46.826;8.650;2022-08-20T13:32:51;3.90;;;3.00;;
11084;SDS011;5596;46.826;8.650;2022-08-20T13:35:19;3.80;;;3.50;;
11084;SDS011;5596;46.826;8.650;2022-08-20T13:37:47;4.53;;;3.67;;
11084;SDS011;5596;46.826;8.650;2022-08-20T13:40:15;3.90;;;3.50;;
11084;SDS011;5596;46.826;8.650;2022-08-20T13:42:43;4.13;;;3.10;;
11084;SDS011;5596;46.826;8.650;2022-08-20T13:45:10;3.55;;;3.20;;
11084;SDS011;5596;46.826;8.650;2022-08-20T13:47:38;3.25;;;2.95;;
11084;SDS011;5596;46.826;8.650;2022-08-20T13:50:08;3.88;;;3.47;;
11084;SDS011;5596;46.826;8.650;2022-08-20T13:52:37;8.55;;;4.07;;
11084;SDS011;5596;46.826;8.650;2022-08-20T13:55:06;5.45;;;3.50;;
11084;SDS011;5596;46.826;8.650;2022-08-20T13:57:35;3.50;;;3.20;;
11084;SDS011;5596;46.826;8.650;2022-08-20T14:00:03;5.10;;;3.50;;
11084;SDS011;5596;46.826;8.650;2022-08-20T14:02:35;4.60;;;3.92;;
11084;SDS011;5596;46.826;8.650;2022-08-20T14:05:02;5.25;;;4.45;;
11084;SDS011;5596;46.826;8.650;2022-08-20T14:07:31;4.45;;;3.92;;
11084;SDS011;5596;46.826;8.650;2022-08-20T14:09:59;4.22;;;3.83;;
11084;SDS011;5596;46.826;8.650;2022-08-20T14:12:27;4.63;;;4.13;;
11084;SDS011;5596;46.826;8.650;2022-08-20T14:14:55;4.40;;;4.00;;
11084;SDS011;5596;46.826;8.650;2022-08-20T14:17:23;4.50;;;3.72;;
11084;SDS011;5596;46.826;8.650;2022-08-20T14:19:52;4.20;;;3.80;;
11084;SDS011;5596;46.826;8.650;2022-08-20T14:22:21;6.00;;;4.30;;
11084;SDS011;5596;46.826;8.650;2022-08-20T14:24:50;4.72;;;4.30;;
11084;SDS011;5596;46.826;8.650;2022-08-20T14:27:17;7.07;;;4.28;;
11084;SDS011;5596;46.826;8.650;2022-08-20T14:29:47;7.47;;;4.93;;
11084;SDS011;5596;46.826;8.650;2022-08-20T14:32:15;3.97;;;3.58;;
11084;SDS011;5596;46.826;8.650;2022-08-20T14:34:43;3.67;;;3.35;;
11084;SDS011;5596;46.826;8.650;2022-08-20T14:37:12;4.28;;;3.88;;
11084;SDS011;5596;46.826;8.650;2022-08-20T14:39:42;6.57;;;5.85;;
11084;SDS011;5596;46.826;8.650;2022-08-20T14:42:14;6.53;;;5.82;;
11084;SDS011;5596;46.826;8.650;2022-08-20T14:44:42;3.78;;;3.47;;
11084;SDS011;5596;46.826;8.650;2022-08-20T14:47:13;4.20;;;3.80;;
11084;SDS011;5596;46.826;8.650;2022-08-20T14:49:43;4.35;;;3.95;;
11084;SDS011;5596;46.826;8.650;2022-08-20T14:52:12;4.65;;;3.70;;
11084;SDS011;5596;46.826;8.650;2022-08-20T14:54:40;4.47;;;4.05;;
11084;SDS011;5596;46.826;8.650;2022-08-20T14:57:07;6.30;;;4.50;;
11084;SDS011;5596;46.826;8.650;2022-08-20T14:59:36;5.22;;;4.72;;
11084;SDS011;5596;46.826;8.650;2022-08-20T15:02:04;5.07;;;4.35;;
11084;SDS011;5596;46.826;8.650;2022-08-20T15:04:32;4.40;;;4.00;;
11084;SDS011;5596;46.826;8.650;2022-08-20T15:06:59;4.15;;;3.85;;
11084;SDS011;5596;46.826;8.650;2022-08-20T15:09:28;4.30;;;3.90;;